sensor_id;sensor_type;location;lat;lon;timestamp;pressure;altitude;pressure_sealevel;temperature;humidity
23118;BME280;11728;50.624;6.014;2022-07-21T00:04:48;98570.41;;;21.25;69.35
23118;BME280;11728;50.624;6.014;2022-07-21T00:10:03;98563.22;;;21.26;69.91
23118;BME280;11728;50.624;6.014;2022-07-21T00:15:04;98563.28;;;21.24;70.14
23118;BME280;11728;50.624;6.014;2022-07-21T00:20:19;98554.56;;;21.21;70.63
23118;BME280;11728;50.624;6.014;2022-07-21T00:25:36;98554.53;;;21.07;71.86
23118;BME280;11728;50.624;6.014;2022-07-21T00:30:37;98553.38;;;20.97;72.75
23118;BME280;11728;50.624;6.014;2022-07-21T00:35:49;98550.97;;;20.77;74.31
23118;BME280;11728;50.624;6.014;2022-07-21T00:41:08;98544.22;;;20.70;74.30
23118;BME280;11728;50.624;6.014;2022-07-21T00:46:09;98537.56;;;20.62;75.20
23118;BME280;11728;50.624;6.014;2022-07-21T00:51:21;98551.63;;;20.51;75.95
23118;BME280;11728;50.624;6.014;2022-07-21T00:56:37;98542.00;;;20.47;76.45
23118;BME280;11728;50.624;6.014;2022-07-21T01:01:40;98543.75;;;20.48;76.64
23118;BME280;11728;50.624;6.014;2022-07-21T01:07:03;98538.91;;;20.39;77.67
23118;BME280;11728;50.624;6.014;2022-07-21T01:12:13;98546.19;;;20.37;78.57
23118;BME280;11728;50.624;6.014;2022-07-21T01:17:14;98554.50;;;20.33;79.92
23118;BME280;11728;50.624;6.014;2022-07-21T01:22:32;98553.38;;;20.37;80.60
23118;BME280;11728;50.624;6.014;2022-07-21T01:27:42;98549.72;;;20.38;81.22
23118;BME280;11728;50.624;6.014;2022-07-21T01:32:43;98543.09;;;20.29;81.56
23118;BME280;11728;50.624;6.014;2022-07-21T01:38:02;98538.59;;;20.14;81.99
23118;BME280;11728;50.624;6.014;2022-07-21T01:43:15;98547.41;;;20.01;83.03
23118;BME280;11728;50.624;6.014;2022-07-21T01:48:19;98541.19;;;20.01;83.25
23118;BME280;11728;50.624;6.014;2022-07-21T01:53:33;98539.47;;;20.00;83.53
23118;BME280;11728;50.624;6.014;2022-07-21T01:58:50;98544.31;;;20.09;84.39
23118;BME280;11728;50.624;6.014;2022-07-21T02:03:54;98539.69;;;20.10;84.40
23118;BME280;11728;50.624;6.014;2022-07-21T02:09:07;98536.34;;;20.22;83.27
23118;BME280;11728;50.624;6.014;2022-07-21T02:14:27;98549.19;;;20.31;83.16
23118;BME280;11728;50.624;6.014;2022-07-21T02:19:28;98547.41;;;20.32;83.14
23118;BME280;11728;50.624;6.014;2022-07-21T02:24:37;98543.69;;;20.34;82.55
23118;BME280;11728;50.624;6.014;2022-07-21T02:29:56;98545.06;;;20.41;82.79
23118;BME280;11728;50.624;6.014;2022-07-21T02:34:57;98545.47;;;20.49;82.78
23118;BME280;11728;50.624;6.014;2022-07-21T02:40:12;98538.09;;;20.53;83.04
23118;BME280;11728;50.624;6.014;2022-07-21T02:45:26;98540.22;;;20.48;83.14
23118;BME280;11728;50.624;6.014;2022-07-21T02:50:31;98540.09;;;20.49;83.67
23118;BME280;11728;50.624;6.014;2022-07-21T02:55:42;98530.22;;;20.50;83.50
23118;BME280;11728;50.624;6.014;2022-07-21T03:01:05;98527.63;;;20.48;83.95
23118;BME280;11728;50.624;6.014;2022-07-21T03:06:06;98526.16;;;20.43;84.28
23118;BME280;11728;50.624;6.014;2022-07-21T03:11:16;98517.09;;;20.30;85.15
23118;BME280;11728;50.624;6.014;2022-07-21T03:16:32;98516.25;;;20.29;85.44
23118;BME280;11728;50.624;6.014;2022-07-21T03:21:32;98516.41;;;20.26;85.80
23118;BME280;11728;50.624;6.014;2022-07-21T03:26:48;98515.72;;;20.23;86.50
23118;BME280;11728;50.624;6.014;2022-07-21T03:32:04;98517.81;;;20.18;86.78
23118;BME280;11728;50.624;6.014;2022-07-21T03:37:05;98510.56;;;20.20;86.97
23118;BME280;11728;50.624;6.014;2022-07-21T03:42:21;98525.44;;;20.10;87.73
23118;BME280;11728;50.624;6.014;2022-07-21T03:47:37;98514.03;;;20.07;87.82
23118;BME280;11728;50.624;6.014;2022-07-21T03:52:38;98520.44;;;20.04;87.56
23118;BME280;11728;50.624;6.014;2022-07-21T03:57:54;98520.59;;;20.01;88.20
23118;BME280;11728;50.624;6.014;2022-07-21T04:03:08;98516.09;;;20.02;87.90
23118;BME280;11728;50.624;6.014;2022-07-21T04:08:12;98525.25;;;19.98;88.10
23118;BME280;11728;50.624;6.014;2022-07-21T04:13:25;98522.41;;;20.01;88.03
23118;BME280;11728;50.624;6.014;2022-07-21T04:18:39;98528.88;;;19.97;88.26
23118;BME280;11728;50.624;6.014;2022-07-21T04:23:40;98532.50;;;19.96;88.16
23118;BME280;11728;50.624;6.014;2022-07-21T04:28:56;98539.63;;;19.97;88.47
23118;BME280;11728;50.624;6.014;2022-07-21T04:34:12;98537.72;;;19.99;88.45
23118;BME280;11728;50.624;6.014;2022-07-21T04:39:16;98537.38;;;20.05;88.51
23118;BME280;11728;50.624;6.014;2022-07-21T04:44:29;98530.59;;;20.13;87.99
23118;BME280;11728;50.624;6.014;2022-07-21T04:49:45;98540.91;;;20.20;87.27
23118;BME280;11728;50.624;6.014;2022-07-21T04:54:46;98549.50;;;20.27;86.76
23118;BME280;11728;50.624;6.014;2022-07-21T05:00:02;98553.03;;;20.27;86.91
23118;BME280;11728;50.624;6.014;2022-07-21T05:05:17;98563.03;;;20.39;86.59
23118;BME280;11728;50.624;6.014;2022-07-21T05:10:18;98557.78;;;20.38;86.88
23118;BME280;11728;50.624;6.014;2022-07-21T05:15:34;98552.94;;;20.44;87.27
23118;BME280;11728;50.624;6.014;2022-07-21T05:20:49;98553.44;;;20.51;87.40
23118;BME280;11728;50.624;6.014;2022-07-21T05:25:53;98557.59;;;20.56;87.10
23118;BME280;11728;50.624;6.014;2022-07-21T05:31:06;98567.44;;;20.71;86.80
23118;BME280;11728;50.624;6.014;2022-07-21T05:36:23;98558.25;;;20.75;85.99
23118;BME280;11728;50.624;6.014;2022-07-21T05:41:23;98567.78;;;20.81;85.60
23118;BME280;11728;50.624;6.014;2022-07-21T05:46:39;98565.19;;;20.79;85.31
23118;BME280;11728;50.624;6.014;2022-07-21T05:51:56;98573.56;;;20.73;84.73
23118;BME280;11728;50.624;6.014;2022-07-21T05:56:57;98574.22;;;20.63;84.54
23118;BME280;11728;50.624;6.014;2022-07-21T06:02:10;98567.50;;;20.85;83.53
23118;BME280;11728;50.624;6.014;2022-07-21T06:07:11;98563.91;;;21.00;82.02
23118;BME280;11728;50.624;6.014;2022-07-21T06:12:12;98564.28;;;20.94;81.23
23118;BME280;11728;50.624;6.014;2022-07-21T06:17:29;98567.56;;;20.99;80.32
23118;BME280;11728;50.624;6.014;2022-07-21T06:22:31;98575.97;;;20.93;80.36
23118;BME280;11728;50.624;6.014;2022-07-21T06:27:47;98568.91;;;21.06;79.62
23118;BME280;11728;50.624;6.014;2022-07-21T06:33:03;98558.44;;;21.31;78.46
23118;BME280;11728;50.624;6.014;2022-07-21T06:38:04;98566.66;;;21.71;77.19
23118;BME280;11728;50.624;6.014;2022-07-21T06:43:17;98570.38;;;22.10;75.75
23118;BME280;11728;50.624;6.014;2022-07-21T06:48:33;98577.66;;;23.03;71.91
23118;BME280;11728;50.624;6.014;2022-07-21T06:53:34;98576.19;;;23.24;70.28
23118;BME280;11728;50.624;6.014;2022-07-21T06:58:49;98567.78;;;23.53;68.23
23118;BME280;11728;50.624;6.014;2022-07-21T07:03:59;98574.75;;;24.30;66.63
23118;BME280;11728;50.624;6.014;2022-07-21T07:09:06;98581.56;;;24.23;65.26
23118;BME280;11728;50.624;6.014;2022-07-21T07:14:19;98592.50;;;23.59;65.23
23118;BME280;11728;50.624;6.014;2022-07-21T07:19:36;98587.47;;;23.04;66.11
23118;BME280;11728;50.624;6.014;2022-07-21T07:24:36;98589.16;;;22.78;66.79
23118;BME280;11728;50.624;6.014;2022-07-21T07:29:52;98603.69;;;22.49;67.42
23118;BME280;11728;50.624;6.014;2022-07-21T07:35:11;98607.06;;;22.25;68.56
23118;BME280;11728;50.624;6.014;2022-07-21T07:40:17;98605.56;;;22.35;69.22
23118;BME280;11728;50.624;6.014;2022-07-21T07:45:28;98590.53;;;22.71;68.01
23118;BME280;11728;50.624;6.014;2022-07-21T07:50:40;98597.78;;;23.48;66.00
23118;BME280;11728;50.624;6.014;2022-07-21T07:55:41;98599.00;;;23.94;63.90
23118;BME280;11728;50.624;6.014;2022-07-21T08:00:57;98594.09;;;24.49;62.57
23118;BME280;11728;50.624;6.014;2022-07-21T08:06:10;98598.31;;;25.57;58.67
23118;BME280;11728;50.624;6.014;2022-07-21T08:11:14;98601.28;;;25.65;56.72
23118;BME280;11728;50.624;6.014;2022-07-21T08:16:31;98602.97;;;26.11;55.17
23118;BME280;11728;50.624;6.014;2022-07-21T08:21:46;98579.97;;;26.49;51.91
23118;BME280;11728;50.624;6.014;2022-07-21T08:26:47;98599.84;;;26.81;51.37
23118;BME280;11728;50.624;6.014;2022-07-21T08:32:03;98584.97;;;27.18;51.92
23118;BME280;11728;50.624;6.014;2022-07-21T08:37:20;98589.31;;;27.21;49.33
23118;BME280;11728;50.624;6.014;2022-07-21T08:42:21;98604.84;;;26.11;52.00
23118;BME280;11728;50.624;6.014;2022-07-21T08:47:36;98594.97;;;26.32;52.43
23118;BME280;11728;50.624;6.014;2022-07-21T08:52:53;98602.63;;;26.27;52.17
23118;BME280;11728;50.624;6.014;2022-07-21T08:57:53;98598.94;;;25.61;52.88
23118;BME280;11728;50.624;6.014;2022-07-21T09:03:26;98605.03;;;24.71;54.95
23118;BME280;11728;50.624;6.014;2022-07-21T09:08:45;98615.06;;;24.20;56.87
23118;BME280;11728;50.624;6.014;2022-07-21T09:13:49;98613.66;;;24.15;57.19
23118;BME280;11728;50.624;6.014;2022-07-21T09:18:53;98615.25;;;24.30;57.24
23118;BME280;11728;50.624;6.014;2022-07-21T09:24:19;98621.47;;;24.07;58.39
23118;BME280;11728;50.624;6.014;2022-07-21T09:29:22;98632.91;;;23.73;60.13
23118;BME280;11728;50.624;6.014;2022-07-21T09:34:22;98639.22;;;23.60;60.74
23118;BME280;11728;50.624;6.014;2022-07-21T09:39:57;98637.78;;;23.42;61.78
23118;BME280;11728;50.624;6.014;2022-07-21T09:45:16;98622.16;;;23.47;61.54
23118;BME280;11728;50.624;6.014;2022-07-21T09:50:36;98628.00;;;23.15;63.32
23118;BME280;11728;50.624;6.014;2022-07-21T09:55:55;98625.78;;;23.21;63.91
23118;BME280;11728;50.624;6.014;2022-07-21T10:01:11;98629.88;;;23.14;65.94
23118;BME280;11728;50.624;6.014;2022-07-21T10:06:16;98631.25;;;22.93;67.58
23118;BME280;11728;50.624;6.014;2022-07-21T10:11:29;98646.88;;;22.48;70.07
23118;BME280;11728;50.624;6.014;2022-07-21T10:16:42;98643.22;;;22.07;73.32
23118;BME280;11728;50.624;6.014;2022-07-21T10:22:18;98649.19;;;21.98;74.61
23118;BME280;11728;50.624;6.014;2022-07-21T10:27:23;98648.56;;;21.79;76.10
23118;BME280;11728;50.624;6.014;2022-07-21T10:32:28;98650.69;;;21.74;76.90
23118;BME280;11728;50.624;6.014;2022-07-21T10:42:39;98648.78;;;21.76;77.88
23118;BME280;11728;50.624;6.014;2022-07-21T10:47:53;98647.03;;;21.75;78.00
23118;BME280;11728;50.624;6.014;2022-07-21T10:52:59;98652.94;;;21.82;78.30
23118;BME280;11728;50.624;6.014;2022-07-21T11:03:30;98657.50;;;21.66;79.25
23118;BME280;11728;50.624;6.014;2022-07-21T11:19:04;98654.28;;;21.89;80.81
23118;BME280;11728;50.624;6.014;2022-07-21T11:24:05;98651.75;;;22.14;80.40
23118;BME280;11728;50.624;6.014;2022-07-21T11:29:06;98647.25;;;22.28;79.83
23118;BME280;11728;50.624;6.014;2022-07-21T11:34:37;98640.97;;;22.28;79.03
23118;BME280;11728;50.624;6.014;2022-07-21T11:39:38;98645.91;;;22.21;79.07
23118;BME280;11728;50.624;6.014;2022-07-21T11:44:41;98643.97;;;22.23;78.72
23118;BME280;11728;50.624;6.014;2022-07-21T11:49:55;98654.34;;;22.01;79.39
23118;BME280;11728;50.624;6.014;2022-07-21T11:55:02;98644.84;;;21.82;79.76
23118;BME280;11728;50.624;6.014;2022-07-21T12:00:14;98652.97;;;21.67;80.74
23118;BME280;11728;50.624;6.014;2022-07-21T12:05:27;98657.56;;;21.65;81.77
23118;BME280;11728;50.624;6.014;2022-07-21T12:10:28;98661.38;;;21.47;83.81
23118;BME280;11728;50.624;6.014;2022-07-21T12:15:44;98664.59;;;21.38;85.00
23118;BME280;11728;50.624;6.014;2022-07-21T12:21:02;98670.09;;;21.21;85.86
23118;BME280;11728;50.624;6.014;2022-07-21T12:26:04;98672.94;;;21.04;86.79
23118;BME280;11728;50.624;6.014;2022-07-21T12:31:17;98668.50;;;21.03;87.91
23118;BME280;11728;50.624;6.014;2022-07-21T12:36:33;98674.28;;;21.11;88.07
23118;BME280;11728;50.624;6.014;2022-07-21T12:41:43;98688.84;;;21.07;88.83
23118;BME280;11728;50.624;6.014;2022-07-21T12:46:50;98686.56;;;21.15;89.15
23118;BME280;11728;50.624;6.014;2022-07-21T12:52:05;98686.63;;;21.29;89.15
23118;BME280;11728;50.624;6.014;2022-07-21T12:57:06;98695.00;;;21.38;89.54
23118;BME280;11728;50.624;6.014;2022-07-21T13:02:19;98691.25;;;21.27;90.55
23118;BME280;11728;50.624;6.014;2022-07-21T13:07:31;98687.16;;;21.35;90.55
23118;BME280;11728;50.624;6.014;2022-07-21T13:12:35;98689.16;;;21.32;90.59
23118;BME280;11728;50.624;6.014;2022-07-21T13:17:54;98689.16;;;21.32;91.13
23118;BME280;11728;50.624;6.014;2022-07-21T13:23:05;98693.38;;;21.36;91.01
23118;BME280;11728;50.624;6.014;2022-07-21T13:28:06;98702.00;;;21.11;92.11
23118;BME280;11728;50.624;6.014;2022-07-21T13:33:22;98704.78;;;20.94;93.48
23118;BME280;11728;50.624;6.014;2022-07-21T13:38:38;98713.03;;;20.76;94.50
23118;BME280;11728;50.624;6.014;2022-07-21T13:43:38;98725.72;;;20.57;94.90
23118;BME280;11728;50.624;6.014;2022-07-21T13:48:55;98723.69;;;20.30;96.00
23118;BME280;11728;50.624;6.014;2022-07-21T13:54:08;98721.44;;;20.22;96.08
23118;BME280;11728;50.624;6.014;2022-07-21T13:59:12;98728.94;;;20.16;96.32
23118;BME280;11728;50.624;6.014;2022-07-21T14:04:24;98730.53;;;20.20;96.12
23118;BME280;11728;50.624;6.014;2022-07-21T14:09:41;98743.53;;;20.10;96.94
23118;BME280;11728;50.624;6.014;2022-07-21T14:14:42;98752.25;;;19.99;96.70
23118;BME280;11728;50.624;6.014;2022-07-21T14:19:59;98754.75;;;19.85;97.17
23118;BME280;11728;50.624;6.014;2022-07-21T14:25:14;98752.41;;;19.79;97.28
23118;BME280;11728;50.624;6.014;2022-07-21T14:30:24;98760.81;;;19.71;97.58
23118;BME280;11728;50.624;6.014;2022-07-21T14:35:31;98767.50;;;19.80;97.61
23118;BME280;11728;50.624;6.014;2022-07-21T14:40:47;98763.66;;;19.85;96.99
23118;BME280;11728;50.624;6.014;2022-07-21T14:45:47;98769.09;;;19.84;97.32
23118;BME280;11728;50.624;6.014;2022-07-21T14:51:03;98767.69;;;19.77;97.52
23118;BME280;11728;50.624;6.014;2022-07-21T14:56:16;98773.13;;;19.75;97.60
23118;BME280;11728;50.624;6.014;2022-07-21T15:01:19;98780.06;;;19.79;97.28
23118;BME280;11728;50.624;6.014;2022-07-21T15:06:33;98784.72;;;19.76;97.45
23118;BME280;11728;50.624;6.014;2022-07-21T15:11:48;98785.25;;;19.65;98.38
23118;BME280;11728;50.624;6.014;2022-07-21T15:16:52;98784.13;;;19.69;98.40
23118;BME280;11728;50.624;6.014;2022-07-21T15:22:07;98791.56;;;19.81;97.98
23118;BME280;11728;50.624;6.014;2022-07-21T15:27:20;98784.56;;;19.96;96.98
23118;BME280;11728;50.624;6.014;2022-07-21T15:32:24;98777.06;;;20.19;95.84
23118;BME280;11728;50.624;6.014;2022-07-21T15:37:39;98780.34;;;20.41;95.19
23118;BME280;11728;50.624;6.014;2022-07-21T15:42:52;98786.34;;;20.61;94.35
23118;BME280;11728;50.624;6.014;2022-07-21T15:47:55;98787.72;;;20.68;94.30
23118;BME280;11728;50.624;6.014;2022-07-21T15:53:08;98790.00;;;20.60;93.93
23118;BME280;11728;50.624;6.014;2022-07-21T15:58:20;98778.16;;;20.47;93.68
23118;BME280;11728;50.624;6.014;2022-07-21T16:03:27;98781.38;;;20.38;94.26
23118;BME280;11728;50.624;6.014;2022-07-21T16:08:40;98780.03;;;20.30;94.85
23118;BME280;11728;50.624;6.014;2022-07-21T16:13:59;98771.97;;;20.30;95.60
23118;BME280;11728;50.624;6.014;2022-07-21T16:19:00;98781.69;;;20.32;95.40
23118;BME280;11728;50.624;6.014;2022-07-21T16:24:13;98778.41;;;20.43;95.04
23118;BME280;11728;50.624;6.014;2022-07-21T16:29:30;98775.34;;;20.50;95.08
23118;BME280;11728;50.624;6.014;2022-07-21T16:34:33;98771.34;;;20.42;95.70
23118;BME280;11728;50.624;6.014;2022-07-21T16:39:49;98777.09;;;20.34;95.94
23118;BME280;11728;50.624;6.014;2022-07-21T16:45:04;98779.19;;;20.12;96.53
23118;BME280;11728;50.624;6.014;2022-07-21T16:50:06;98779.06;;;19.99;96.05
23118;BME280;11728;50.624;6.014;2022-07-21T16:55:23;98777.63;;;19.92;95.48
23118;BME280;11728;50.624;6.014;2022-07-21T17:00:33;98782.69;;;19.98;95.17
23118;BME280;11728;50.624;6.014;2022-07-21T17:05:36;98785.97;;;20.03;93.96
23118;BME280;11728;50.624;6.014;2022-07-21T17:10:52;98789.44;;;20.21;93.44
23118;BME280;11728;50.624;6.014;2022-07-21T17:16:07;98791.09;;;20.24;92.39
23118;BME280;11728;50.624;6.014;2022-07-21T17:21:09;98791.09;;;20.24;92.38
23118;BME280;11728;50.624;6.014;2022-07-21T17:26:25;98797.03;;;20.30;91.81
23118;BME280;11728;50.624;6.014;2022-07-21T17:31:38;98789.72;;;20.32;91.93
23118;BME280;11728;50.624;6.014;2022-07-21T17:36:41;98794.47;;;20.27;91.83
23118;BME280;11728;50.624;6.014;2022-07-21T17:41:57;98795.59;;;20.23;92.15
23118;BME280;11728;50.624;6.014;2022-07-21T17:47:10;98790.41;;;20.20;92.43
23118;BME280;11728;50.624;6.014;2022-07-21T17:52:14;98794.16;;;20.16;92.69
23118;BME280;11728;50.624;6.014;2022-07-21T17:57:30;98795.16;;;20.48;91.45
23118;BME280;11728;50.624;6.014;2022-07-21T18:02:49;98798.25;;;20.40;90.87
23118;BME280;11728;50.624;6.014;2022-07-21T18:07:50;98797.16;;;20.27;91.50
23118;BME280;11728;50.624;6.014;2022-07-21T18:12:57;98787.63;;;20.22;91.71
23118;BME280;11728;50.624;6.014;2022-07-21T18:18:16;98801.28;;;20.17;91.73
23118;BME280;11728;50.624;6.014;2022-07-21T18:23:17;98811.81;;;20.05;91.44
23118;BME280;11728;50.624;6.014;2022-07-21T18:28:33;98803.28;;;19.97;91.25
23118;BME280;11728;50.624;6.014;2022-07-21T18:33:45;98803.72;;;19.88;91.45
23118;BME280;11728;50.624;6.014;2022-07-21T18:38:52;98811.16;;;19.83;91.50
23118;BME280;11728;50.624;6.014;2022-07-21T18:44:03;98811.06;;;19.85;91.67
23118;BME280;11728;50.624;6.014;2022-07-21T18:49:19;98807.72;;;19.80;92.02
23118;BME280;11728;50.624;6.014;2022-07-21T18:54:21;98812.63;;;19.72;91.94
23118;BME280;11728;50.624;6.014;2022-07-21T18:59:39;98821.75;;;19.68;92.24
23118;BME280;11728;50.624;6.014;2022-07-21T19:04:52;98829.00;;;19.66;92.39
23118;BME280;11728;50.624;6.014;2022-07-21T19:09:56;98823.00;;;19.61;92.86
23118;BME280;11728;50.624;6.014;2022-07-21T19:15:08;98829.63;;;19.54;92.97
23118;BME280;11728;50.624;6.014;2022-07-21T19:20:21;98836.31;;;19.45;93.11
23118;BME280;11728;50.624;6.014;2022-07-21T19:25:28;98834.72;;;19.41;93.23
23118;BME280;11728;50.624;6.014;2022-07-21T19:30:40;98839.34;;;19.38;93.66
23118;BME280;11728;50.624;6.014;2022-07-21T19:35:58;98834.16;;;19.35;93.32
23118;BME280;11728;50.624;6.014;2022-07-21T19:40:59;98846.88;;;19.30;93.08
23118;BME280;11728;50.624;6.014;2022-07-21T19:46:14;98845.44;;;19.23;93.11
23118;BME280;11728;50.624;6.014;2022-07-21T19:51:24;98857.28;;;19.19;93.46
23118;BME280;11728;50.624;6.014;2022-07-21T19:56:31;98857.56;;;19.13;93.83
23118;BME280;11728;50.624;6.014;2022-07-21T20:01:44;98870.41;;;19.05;93.38
23118;BME280;11728;50.624;6.014;2022-07-21T20:07:01;98870.75;;;18.98;93.35
23118;BME280;11728;50.624;6.014;2022-07-21T20:12:01;98865.69;;;18.92;93.81
23118;BME280;11728;50.624;6.014;2022-07-21T20:17:15;98872.06;;;18.89;94.04
23118;BME280;11728;50.624;6.014;2022-07-21T20:22:31;98869.31;;;18.91;94.23
23118;BME280;11728;50.624;6.014;2022-07-21T20:27:34;98873.72;;;18.92;93.89
23118;BME280;11728;50.624;6.014;2022-07-21T20:32:51;98874.88;;;18.86;93.93
23118;BME280;11728;50.624;6.014;2022-07-21T20:38:04;98872.50;;;18.80;93.79
23118;BME280;11728;50.624;6.014;2022-07-21T20:43:10;98875.66;;;18.70;94.05
23118;BME280;11728;50.624;6.014;2022-07-21T20:48:20;98875.22;;;18.60;94.60
23118;BME280;11728;50.624;6.014;2022-07-21T20:53:35;98879.22;;;18.51;94.69
23118;BME280;11728;50.624;6.014;2022-07-21T20:58:36;98873.44;;;18.41;94.75
23118;BME280;11728;50.624;6.014;2022-07-21T21:03:52;98875.50;;;18.35;94.64
23118;BME280;11728;50.624;6.014;2022-07-21T21:09:05;98873.69;;;18.35;94.54
23118;BME280;11728;50.624;6.014;2022-07-21T21:14:09;98870.22;;;18.33;94.24
23118;BME280;11728;50.624;6.014;2022-07-21T21:19:25;98871.97;;;18.34;93.95
23118;BME280;11728;50.624;6.014;2022-07-21T21:24:37;98874.75;;;18.31;94.17
23118;BME280;11728;50.624;6.014;2022-07-21T21:29:42;98881.84;;;18.32;94.12
23118;BME280;11728;50.624;6.014;2022-07-21T21:34:54;98882.03;;;18.28;94.22
23118;BME280;11728;50.624;6.014;2022-07-21T21:40:11;98881.22;;;18.26;94.45
23118;BME280;11728;50.624;6.014;2022-07-21T21:45:13;98891.16;;;18.24;94.71
23118;BME280;11728;50.624;6.014;2022-07-21T21:50:29;98889.34;;;18.24;94.78
23118;BME280;11728;50.624;6.014;2022-07-21T21:55:42;98890.25;;;18.23;95.12
23118;BME280;11728;50.624;6.014;2022-07-21T22:00:48;98893.09;;;18.19;94.99
23118;BME280;11728;50.624;6.014;2022-07-21T22:06:02;98890.22;;;18.25;94.67
23118;BME280;11728;50.624;6.014;2022-07-21T22:11:14;98885.66;;;18.27;94.47
23118;BME280;11728;50.624;6.014;2022-07-21T22:16:18;98890.97;;;18.28;94.67
23118;BME280;11728;50.624;6.014;2022-07-21T22:21:34;98892.75;;;18.28;94.50
23118;BME280;11728;50.624;6.014;2022-07-21T22:26:46;98894.59;;;18.26;94.90
23118;BME280;11728;50.624;6.014;2022-07-21T22:31:50;98889.25;;;18.26;95.04
23118;BME280;11728;50.624;6.014;2022-07-21T22:37:06;98891.00;;;18.27;95.52
23118;BME280;11728;50.624;6.014;2022-07-21T22:42:21;98890.16;;;18.26;96.46
23118;BME280;11728;50.624;6.014;2022-07-21T22:47:22;98893.03;;;18.22;96.67
23118;BME280;11728;50.624;6.014;2022-07-21T22:52:39;98880.66;;;18.18;96.89
23118;BME280;11728;50.624;6.014;2022-07-21T22:57:55;98871.88;;;18.16;97.00
23118;BME280;11728;50.624;6.014;2022-07-21T23:02:57;98880.66;;;18.18;96.93
23118;BME280;11728;50.624;6.014;2022-07-21T23:08:10;98867.56;;;18.12;97.12
23118;BME280;11728;50.624;6.014;2022-07-21T23:13:22;98860.44;;;18.12;97.36
23118;BME280;11728;50.624;6.014;2022-07-21T23:18:25;98861.28;;;18.13;97.27
23118;BME280;11728;50.624;6.014;2022-07-21T23:23:41;98861.28;;;18.13;97.18
23118;BME280;11728;50.624;6.014;2022-07-21T23:28:53;98863.09;;;18.12;97.13
23118;BME280;11728;50.624;6.014;2022-07-21T23:33:57;98857.97;;;18.08;96.95
23118;BME280;11728;50.624;6.014;2022-07-21T23:39:10;98855.28;;;18.08;96.79
23118;BME280;11728;50.624;6.014;2022-07-21T23:44:26;98853.53;;;18.07;97.01
23118;BME280;11728;50.624;6.014;2022-07-21T23:49:27;98856.94;;;18.10;96.79
23118;BME280;11728;50.624;6.014;2022-07-21T23:54:43;98853.34;;;18.11;96.53
23118;BME280;11728;50.624;6.014;2022-07-21T23:59:59;98852.34;;;18.14;96.86
